sensor_id;sensor_type;location;lat;lon;timestamp;temperature;humidity
28023;DHT22;67403;50.104;8.758;2023-02-26T00:00:03;0.20;99.90
28023;DHT22;67403;50.104;8.758;2023-02-26T00:02:32;0.20;99.90
28023;DHT22;67403;50.104;8.758;2023-02-26T00:05:00;0.20;99.90
28023;DHT22;67403;50.104;8.758;2023-02-26T00:07:27;0.10;99.90
28023;DHT22;67403;50.104;8.758;2023-02-26T00:09:54;0.20;99.90
28023;DHT22;67403;50.104;8.758;2023-02-26T00:12:21;0.10;99.90
28023;DHT22;67403;50.104;8.758;2023-02-26T00:14:50;0.10;99.90
28023;DHT22;67403;50.104;8.758;2023-02-26T00:17:28;0.10;99.90
28023;DHT22;67403;50.104;8.758;2023-02-26T00:19:58;0.10;99.90
28023;DHT22;67403;50.104;8.758;2023-02-26T00:22:25;0.10;99.90
28023;DHT22;67403;50.104;8.758;2023-02-26T00:24:52;0.10;99.90
28023;DHT22;67403;50.104;8.758;2023-02-26T00:27:19;0.10;99.90
28023;DHT22;67403;50.104;8.758;2023-02-26T00:29:46;0.00;99.90
28023;DHT22;67403;50.104;8.758;2023-02-26T00:32:15;0.10;99.90
28023;DHT22;67403;50.104;8.758;2023-02-26T00:34:44;0.20;99.90
28023;DHT22;67403;50.104;8.758;2023-02-26T00:37:19;0.20;99.90
28023;DHT22;67403;50.104;8.758;2023-02-26T00:39:55;0.10;99.90
28023;DHT22;67403;50.104;8.758;2023-02-26T00:42:25;0.10;99.90
28023;DHT22;67403;50.104;8.758;2023-02-26T00:44:53;0.10;99.90
28023;DHT22;67403;50.104;8.758;2023-02-26T00:47:25;0.10;99.90
28023;DHT22;67403;50.104;8.758;2023-02-26T00:50:04;0.20;99.90
28023;DHT22;67403;50.104;8.758;2023-02-26T00:52:38;0.20;99.90
28023;DHT22;67403;50.104;8.758;2023-02-26T00:55:07;0.20;99.90
28023;DHT22;67403;50.104;8.758;2023-02-26T00:57:33;0.30;99.90
28023;DHT22;67403;50.104;8.758;2023-02-26T01:00:00;0.30;99.90
28023;DHT22;67403;50.104;8.758;2023-02-26T01:02:32;0.30;99.90
28023;DHT22;67403;50.104;8.758;2023-02-26T01:05:00;0.40;99.90
28023;DHT22;67403;50.104;8.758;2023-02-26T01:07:27;0.40;99.90
28023;DHT22;67403;50.104;8.758;2023-02-26T01:09:55;0.30;99.90
28023;DHT22;67403;50.104;8.758;2023-02-26T01:12:23;0.40;99.90
28023;DHT22;67403;50.104;8.758;2023-02-26T01:14:50;0.40;99.90
28023;DHT22;67403;50.104;8.758;2023-02-26T01:17:20;0.50;99.90
28023;DHT22;67403;50.104;8.758;2023-02-26T01:19:52;0.50;99.90
28023;DHT22;67403;50.104;8.758;2023-02-26T01:22:24;0.50;99.90
28023;DHT22;67403;50.104;8.758;2023-02-26T01:24:58;0.60;99.90
28023;DHT22;67403;50.104;8.758;2023-02-26T01:27:27;0.50;99.90
28023;DHT22;67403;50.104;8.758;2023-02-26T01:29:54;0.50;99.90
28023;DHT22;67403;50.104;8.758;2023-02-26T01:32:25;0.60;99.90
28023;DHT22;67403;50.104;8.758;2023-02-26T01:35:00;0.50;99.90
28023;DHT22;67403;50.104;8.758;2023-02-26T01:37:33;0.50;99.90
28023;DHT22;67403;50.104;8.758;2023-02-26T01:40:33;0.50;99.90
28023;DHT22;67403;50.104;8.758;2023-02-26T01:43:06;0.40;99.90
28023;DHT22;67403;50.104;8.758;2023-02-26T01:45:42;0.30;99.90
28023;DHT22;67403;50.104;8.758;2023-02-26T01:48:19;0.30;99.90
28023;DHT22;67403;50.104;8.758;2023-02-26T01:50:50;0.20;99.90
28023;DHT22;67403;50.104;8.758;2023-02-26T01:53:19;0.10;99.90
28023;DHT22;67403;50.104;8.758;2023-02-26T01:55:50;0.10;99.90
28023;DHT22;67403;50.104;8.758;2023-02-26T01:58:19;0.10;99.90
28023;DHT22;67403;50.104;8.758;2023-02-26T02:00:47;0.00;99.90
28023;DHT22;67403;50.104;8.758;2023-02-26T02:03:14;0.10;99.90
28023;DHT22;67403;50.104;8.758;2023-02-26T02:05:43;0.10;99.90
28023;DHT22;67403;50.104;8.758;2023-02-26T02:08:13;0.00;99.90
28023;DHT22;67403;50.104;8.758;2023-02-26T02:10:41;0.00;99.90
28023;DHT22;67403;50.104;8.758;2023-02-26T02:13:18;0.00;99.90
28023;DHT22;67403;50.104;8.758;2023-02-26T02:15:52;0.00;99.90
28023;DHT22;67403;50.104;8.758;2023-02-26T02:18:23;0.10;99.90
28023;DHT22;67403;50.104;8.758;2023-02-26T02:21:15;0.20;99.90
28023;DHT22;67403;50.104;8.758;2023-02-26T02:23:51;0.20;99.90
28023;DHT22;67403;50.104;8.758;2023-02-26T02:26:43;0.20;99.90
28023;DHT22;67403;50.104;8.758;2023-02-26T02:32:09;-0.10;99.90
28023;DHT22;67403;50.104;8.758;2023-02-26T02:34:42;-0.30;99.90
28023;DHT22;67403;50.104;8.758;2023-02-26T02:37:15;-0.30;99.90
28023;DHT22;67403;50.104;8.758;2023-02-26T02:39:45;-0.40;99.90
28023;DHT22;67403;50.104;8.758;2023-02-26T02:42:23;-0.40;99.90
28023;DHT22;67403;50.104;8.758;2023-02-26T02:44:56;-0.40;99.90
28023;DHT22;67403;50.104;8.758;2023-02-26T02:47:26;-0.50;99.90
28023;DHT22;67403;50.104;8.758;2023-02-26T02:50:00;-0.50;99.90
28023;DHT22;67403;50.104;8.758;2023-02-26T02:52:32;-0.40;99.90
28023;DHT22;67403;50.104;8.758;2023-02-26T02:55:03;-0.50;99.90
28023;DHT22;67403;50.104;8.758;2023-02-26T02:57:34;-0.50;99.90
28023;DHT22;67403;50.104;8.758;2023-02-26T03:00:05;-0.50;99.90
28023;DHT22;67403;50.104;8.758;2023-02-26T03:02:40;-0.60;99.90
28023;DHT22;67403;50.104;8.758;2023-02-26T03:05:09;-0.70;99.90
28023;DHT22;67403;50.104;8.758;2023-02-26T03:07:40;-0.70;99.90
28023;DHT22;67403;50.104;8.758;2023-02-26T03:10:10;-0.70;99.90
28023;DHT22;67403;50.104;8.758;2023-02-26T03:12:38;-0.80;99.90
28023;DHT22;67403;50.104;8.758;2023-02-26T03:15:06;-0.80;99.90
28023;DHT22;67403;50.104;8.758;2023-02-26T03:17:42;-0.80;99.90
28023;DHT22;67403;50.104;8.758;2023-02-26T03:20:18;-0.80;99.90
28023;DHT22;67403;50.104;8.758;2023-02-26T03:22:52;-0.80;99.90
28023;DHT22;67403;50.104;8.758;2023-02-26T03:25:26;-0.90;99.90
28023;DHT22;67403;50.104;8.758;2023-02-26T03:27:58;-1.00;99.90
28023;DHT22;67403;50.104;8.758;2023-02-26T03:30:31;-1.00;99.90
28023;DHT22;67403;50.104;8.758;2023-02-26T03:33:04;-1.00;99.90
28023;DHT22;67403;50.104;8.758;2023-02-26T03:35:36;-1.00;99.90
28023;DHT22;67403;50.104;8.758;2023-02-26T03:38:06;-1.00;99.90
28023;DHT22;67403;50.104;8.758;2023-02-26T03:40:38;-1.10;99.90
28023;DHT22;67403;50.104;8.758;2023-02-26T03:43:10;-1.10;99.90
28023;DHT22;67403;50.104;8.758;2023-02-26T03:45:39;-1.20;99.90
28023;DHT22;67403;50.104;8.758;2023-02-26T03:48:10;-1.20;99.90
28023;DHT22;67403;50.104;8.758;2023-02-26T03:50:42;-1.20;99.90
28023;DHT22;67403;50.104;8.758;2023-02-26T03:53:13;-1.20;99.90
28023;DHT22;67403;50.104;8.758;2023-02-26T03:55:45;-1.20;99.90
28023;DHT22;67403;50.104;8.758;2023-02-26T03:58:13;-1.20;99.90
28023;DHT22;67403;50.104;8.758;2023-02-26T04:00:41;-1.20;99.90
28023;DHT22;67403;50.104;8.758;2023-02-26T04:03:14;-1.20;99.90
28023;DHT22;67403;50.104;8.758;2023-02-26T04:05:46;-1.20;99.90
28023;DHT22;67403;50.104;8.758;2023-02-26T04:08:14;-1.20;99.90
28023;DHT22;67403;50.104;8.758;2023-02-26T04:10:43;-1.20;99.90
28023;DHT22;67403;50.104;8.758;2023-02-26T04:13:11;-1.30;99.90
28023;DHT22;67403;50.104;8.758;2023-02-26T04:15:37;-1.20;99.90
28023;DHT22;67403;50.104;8.758;2023-02-26T04:18:04;-1.30;99.90
28023;DHT22;67403;50.104;8.758;2023-02-26T04:20:33;-1.30;99.90
28023;DHT22;67403;50.104;8.758;2023-02-26T04:23:00;-1.30;99.90
28023;DHT22;67403;50.104;8.758;2023-02-26T04:25:26;-1.20;99.90
28023;DHT22;67403;50.104;8.758;2023-02-26T04:27:53;-1.30;99.90
28023;DHT22;67403;50.104;8.758;2023-02-26T04:30:20;-1.40;99.90
28023;DHT22;67403;50.104;8.758;2023-02-26T04:32:47;-1.40;99.90
28023;DHT22;67403;50.104;8.758;2023-02-26T04:35:14;-1.30;99.90
28023;DHT22;67403;50.104;8.758;2023-02-26T04:37:42;-1.40;99.90
28023;DHT22;67403;50.104;8.758;2023-02-26T04:40:10;-1.30;99.90
28023;DHT22;67403;50.104;8.758;2023-02-26T04:42:38;-1.40;99.90
28023;DHT22;67403;50.104;8.758;2023-02-26T04:45:05;-1.40;99.90
28023;DHT22;67403;50.104;8.758;2023-02-26T04:47:33;-1.40;99.90
28023;DHT22;67403;50.104;8.758;2023-02-26T04:50:00;-1.40;99.90
28023;DHT22;67403;50.104;8.758;2023-02-26T04:52:27;-1.30;99.90
28023;DHT22;67403;50.104;8.758;2023-02-26T04:54:55;-1.50;99.90
28023;DHT22;67403;50.104;8.758;2023-02-26T04:57:22;-1.60;99.90
28023;DHT22;67403;50.104;8.758;2023-02-26T04:59:49;-1.60;99.90
28023;DHT22;67403;50.104;8.758;2023-02-26T05:02:15;-1.70;99.90
28023;DHT22;67403;50.104;8.758;2023-02-26T05:04:42;-1.70;99.90
28023;DHT22;67403;50.104;8.758;2023-02-26T05:07:09;-1.80;99.90
28023;DHT22;67403;50.104;8.758;2023-02-26T05:09:36;-1.80;99.90
28023;DHT22;67403;50.104;8.758;2023-02-26T05:12:04;-1.70;99.90
28023;DHT22;67403;50.104;8.758;2023-02-26T05:14:31;-1.80;99.90
28023;DHT22;67403;50.104;8.758;2023-02-26T05:16:58;-1.90;99.90
28023;DHT22;67403;50.104;8.758;2023-02-26T05:19:25;-1.90;99.90
28023;DHT22;67403;50.104;8.758;2023-02-26T05:21:52;-2.00;99.90
28023;DHT22;67403;50.104;8.758;2023-02-26T05:24:19;-1.90;99.90
28023;DHT22;67403;50.104;8.758;2023-02-26T05:26:46;-1.80;99.90
28023;DHT22;67403;50.104;8.758;2023-02-26T05:29:14;-1.80;99.90
28023;DHT22;67403;50.104;8.758;2023-02-26T05:31:41;-1.70;99.90
28023;DHT22;67403;50.104;8.758;2023-02-26T05:34:08;-1.60;99.90
28023;DHT22;67403;50.104;8.758;2023-02-26T05:36:35;-1.70;99.90
28023;DHT22;67403;50.104;8.758;2023-02-26T05:39:02;-1.70;99.90
28023;DHT22;67403;50.104;8.758;2023-02-26T05:41:29;-1.70;99.90
28023;DHT22;67403;50.104;8.758;2023-02-26T05:43:56;-1.70;99.90
28023;DHT22;67403;50.104;8.758;2023-02-26T05:46:25;-1.70;99.90
28023;DHT22;67403;50.104;8.758;2023-02-26T05:48:51;-1.70;99.90
28023;DHT22;67403;50.104;8.758;2023-02-26T05:51:18;-1.70;99.90
28023;DHT22;67403;50.104;8.758;2023-02-26T05:53:45;-1.70;99.90
28023;DHT22;67403;50.104;8.758;2023-02-26T05:56:12;-1.60;99.90
28023;DHT22;67403;50.104;8.758;2023-02-26T05:58:40;-1.50;99.90
28023;DHT22;67403;50.104;8.758;2023-02-26T06:01:07;-1.50;99.90
28023;DHT22;67403;50.104;8.758;2023-02-26T06:03:35;-1.50;99.90
28023;DHT22;67403;50.104;8.758;2023-02-26T06:06:05;-1.50;99.90
28023;DHT22;67403;50.104;8.758;2023-02-26T06:08:31;-1.50;99.90
28023;DHT22;67403;50.104;8.758;2023-02-26T06:10:58;-1.50;99.90
28023;DHT22;67403;50.104;8.758;2023-02-26T06:13:25;-1.40;99.90
28023;DHT22;67403;50.104;8.758;2023-02-26T06:15:52;-1.40;99.90
28023;DHT22;67403;50.104;8.758;2023-02-26T06:18:19;-1.40;99.90
28023;DHT22;67403;50.104;8.758;2023-02-26T06:20:47;-1.40;99.90
28023;DHT22;67403;50.104;8.758;2023-02-26T06:23:14;-1.30;99.90
28023;DHT22;67403;50.104;8.758;2023-02-26T06:25:41;-1.40;99.90
28023;DHT22;67403;50.104;8.758;2023-02-26T06:28:08;-1.40;99.90
28023;DHT22;67403;50.104;8.758;2023-02-26T06:30:35;-1.30;99.90
28023;DHT22;67403;50.104;8.758;2023-02-26T06:33:02;-1.20;99.90
28023;DHT22;67403;50.104;8.758;2023-02-26T06:35:29;-1.20;99.90
28023;DHT22;67403;50.104;8.758;2023-02-26T06:37:58;-1.20;99.90
28023;DHT22;67403;50.104;8.758;2023-02-26T06:40:24;-1.20;99.90
28023;DHT22;67403;50.104;8.758;2023-02-26T06:42:51;-1.20;99.90
28023;DHT22;67403;50.104;8.758;2023-02-26T06:45:18;-1.10;99.90
28023;DHT22;67403;50.104;8.758;2023-02-26T06:47:45;-1.10;99.90
28023;DHT22;67403;50.104;8.758;2023-02-26T06:50:12;-1.00;99.90
28023;DHT22;67403;50.104;8.758;2023-02-26T06:52:39;-1.10;99.90
28023;DHT22;67403;50.104;8.758;2023-02-26T06:55:09;-1.10;99.90
28023;DHT22;67403;50.104;8.758;2023-02-26T06:57:36;-1.00;99.90
28023;DHT22;67403;50.104;8.758;2023-02-26T07:00:04;-1.00;99.90
28023;DHT22;67403;50.104;8.758;2023-02-26T07:02:32;-0.90;99.90
28023;DHT22;67403;50.104;8.758;2023-02-26T07:04:59;-0.90;99.90
28023;DHT22;67403;50.104;8.758;2023-02-26T07:07:26;-0.90;99.90
28023;DHT22;67403;50.104;8.758;2023-02-26T07:09:53;-0.80;99.90
28023;DHT22;67403;50.104;8.758;2023-02-26T07:12:22;-0.70;99.90
28023;DHT22;67403;50.104;8.758;2023-02-26T07:14:49;-0.70;99.90
28023;DHT22;67403;50.104;8.758;2023-02-26T07:17:15;-0.70;99.90
28023;DHT22;67403;50.104;8.758;2023-02-26T07:19:45;-0.60;99.90
28023;DHT22;67403;50.104;8.758;2023-02-26T07:22:13;-0.60;99.90
28023;DHT22;67403;50.104;8.758;2023-02-26T07:24:40;-0.60;99.90
28023;DHT22;67403;50.104;8.758;2023-02-26T07:27:07;-0.50;99.90
28023;DHT22;67403;50.104;8.758;2023-02-26T07:29:35;-0.40;99.90
28023;DHT22;67403;50.104;8.758;2023-02-26T07:32:03;-0.40;99.90
28023;DHT22;67403;50.104;8.758;2023-02-26T07:34:31;-0.30;99.90
28023;DHT22;67403;50.104;8.758;2023-02-26T07:36:58;-0.30;99.90
28023;DHT22;67403;50.104;8.758;2023-02-26T07:39:25;-0.30;99.90
28023;DHT22;67403;50.104;8.758;2023-02-26T07:41:53;-0.20;99.90
28023;DHT22;67403;50.104;8.758;2023-02-26T07:44:20;-0.20;99.90
28023;DHT22;67403;50.104;8.758;2023-02-26T07:46:48;-0.10;99.90
28023;DHT22;67403;50.104;8.758;2023-02-26T07:49:15;0.00;99.90
28023;DHT22;67403;50.104;8.758;2023-02-26T07:51:42;0.10;99.90
28023;DHT22;67403;50.104;8.758;2023-02-26T07:54:11;0.10;99.90
28023;DHT22;67403;50.104;8.758;2023-02-26T07:56:39;0.10;99.90
28023;DHT22;67403;50.104;8.758;2023-02-26T07:59:07;0.00;99.90
28023;DHT22;67403;50.104;8.758;2023-02-26T08:01:34;0.10;99.90
28023;DHT22;67403;50.104;8.758;2023-02-26T08:04:03;0.20;99.90
28023;DHT22;67403;50.104;8.758;2023-02-26T08:06:30;0.30;99.90
28023;DHT22;67403;50.104;8.758;2023-02-26T08:08:57;0.20;99.90
28023;DHT22;67403;50.104;8.758;2023-02-26T08:11:24;0.20;99.90
28023;DHT22;67403;50.104;8.758;2023-02-26T08:13:51;0.20;99.90
28023;DHT22;67403;50.104;8.758;2023-02-26T08:16:17;0.10;99.90
28023;DHT22;67403;50.104;8.758;2023-02-26T08:18:44;0.10;99.90
28023;DHT22;67403;50.104;8.758;2023-02-26T08:21:13;0.10;99.90
28023;DHT22;67403;50.104;8.758;2023-02-26T08:23:40;0.10;99.90
28023;DHT22;67403;50.104;8.758;2023-02-26T08:26:09;0.10;99.90
28023;DHT22;67403;50.104;8.758;2023-02-26T08:28:37;0.10;99.90
28023;DHT22;67403;50.104;8.758;2023-02-26T08:31:03;0.20;99.90
28023;DHT22;67403;50.104;8.758;2023-02-26T08:33:31;0.20;99.90
28023;DHT22;67403;50.104;8.758;2023-02-26T08:35:58;0.20;99.90
28023;DHT22;67403;50.104;8.758;2023-02-26T08:38:28;0.30;99.90
28023;DHT22;67403;50.104;8.758;2023-02-26T08:40:56;0.40;99.90
28023;DHT22;67403;50.104;8.758;2023-02-26T08:43:23;0.50;99.90
28023;DHT22;67403;50.104;8.758;2023-02-26T08:45:51;0.60;99.90
28023;DHT22;67403;50.104;8.758;2023-02-26T08:48:18;0.70;99.90
28023;DHT22;67403;50.104;8.758;2023-02-26T08:50:45;0.80;99.90
28023;DHT22;67403;50.104;8.758;2023-02-26T08:53:12;0.70;99.90
28023;DHT22;67403;50.104;8.758;2023-02-26T08:55:41;0.70;99.90
28023;DHT22;67403;50.104;8.758;2023-02-26T08:58:09;0.70;99.90
28023;DHT22;67403;50.104;8.758;2023-02-26T09:00:36;0.60;99.90
28023;DHT22;67403;50.104;8.758;2023-02-26T09:03:03;0.50;99.90
28023;DHT22;67403;50.104;8.758;2023-02-26T09:05:30;0.70;99.90
28023;DHT22;67403;50.104;8.758;2023-02-26T09:07:57;0.80;99.90
28023;DHT22;67403;50.104;8.758;2023-02-26T09:10:23;0.90;99.90
28023;DHT22;67403;50.104;8.758;2023-02-26T09:12:52;0.80;99.90
28023;DHT22;67403;50.104;8.758;2023-02-26T09:15:19;1.10;99.90
28023;DHT22;67403;50.104;8.758;2023-02-26T09:17:46;1.10;99.90
28023;DHT22;67403;50.104;8.758;2023-02-26T09:20:13;1.20;99.90
28023;DHT22;67403;50.104;8.758;2023-02-26T09:22:40;1.20;99.90
28023;DHT22;67403;50.104;8.758;2023-02-26T09:25:08;1.30;99.90
28023;DHT22;67403;50.104;8.758;2023-02-26T09:27:35;1.40;99.90
28023;DHT22;67403;50.104;8.758;2023-02-26T09:30:04;1.20;99.90
28023;DHT22;67403;50.104;8.758;2023-02-26T09:32:31;1.20;99.90
28023;DHT22;67403;50.104;8.758;2023-02-26T09:34:58;1.30;99.90
28023;DHT22;67403;50.104;8.758;2023-02-26T09:37:25;1.20;99.90
28023;DHT22;67403;50.104;8.758;2023-02-26T09:39:52;1.30;99.90
28023;DHT22;67403;50.104;8.758;2023-02-26T09:42:30;1.30;99.90
28023;DHT22;67403;50.104;8.758;2023-02-26T09:45:00;1.30;99.90
28023;DHT22;67403;50.104;8.758;2023-02-26T09:47:32;1.40;99.90
28023;DHT22;67403;50.104;8.758;2023-02-26T09:50:11;1.40;99.90
28023;DHT22;67403;50.104;8.758;2023-02-26T09:52:44;1.80;99.90
28023;DHT22;67403;50.104;8.758;2023-02-26T09:55:26;2.00;99.90
28023;DHT22;67403;50.104;8.758;2023-02-26T09:57:57;2.00;99.90
28023;DHT22;67403;50.104;8.758;2023-02-26T10:00:31;2.40;99.90
28023;DHT22;67403;50.104;8.758;2023-02-26T10:03:16;2.70;99.90
28023;DHT22;67403;50.104;8.758;2023-02-26T10:05:52;2.80;99.90
28023;DHT22;67403;50.104;8.758;2023-02-26T10:08:31;2.90;99.90
28023;DHT22;67403;50.104;8.758;2023-02-26T10:11:04;3.30;99.90
28023;DHT22;67403;50.104;8.758;2023-02-26T10:13:36;3.90;99.90
28023;DHT22;67403;50.104;8.758;2023-02-26T10:16:08;4.50;99.90
28023;DHT22;67403;50.104;8.758;2023-02-26T10:18:42;5.80;99.90
28023;DHT22;67403;50.104;8.758;2023-02-26T10:21:15;6.30;99.90
28023;DHT22;67403;50.104;8.758;2023-02-26T10:23:47;5.80;99.90
28023;DHT22;67403;50.104;8.758;2023-02-26T10:26:19;6.30;99.90
28023;DHT22;67403;50.104;8.758;2023-02-26T10:28:55;6.10;99.90
28023;DHT22;67403;50.104;8.758;2023-02-26T10:31:28;5.60;99.90
28023;DHT22;67403;50.104;8.758;2023-02-26T10:34:09;6.70;99.90
28023;DHT22;67403;50.104;8.758;2023-02-26T10:36:39;6.80;99.90
28023;DHT22;67403;50.104;8.758;2023-02-26T10:39:18;6.00;99.90
28023;DHT22;67403;50.104;8.758;2023-02-26T10:41:47;5.50;99.90
28023;DHT22;67403;50.104;8.758;2023-02-26T10:44:19;4.80;99.90
28023;DHT22;67403;50.104;8.758;2023-02-26T10:46:53;3.80;99.90
28023;DHT22;67403;50.104;8.758;2023-02-26T10:49:44;3.70;99.90
28023;DHT22;67403;50.104;8.758;2023-02-26T10:52:16;3.90;99.90
28023;DHT22;67403;50.104;8.758;2023-02-26T10:54:50;3.80;99.90
28023;DHT22;67403;50.104;8.758;2023-02-26T10:57:24;3.80;99.90
28023;DHT22;67403;50.104;8.758;2023-02-26T10:59:52;3.80;99.90
28023;DHT22;67403;50.104;8.758;2023-02-26T11:02:35;4.10;99.90
28023;DHT22;67403;50.104;8.758;2023-02-26T11:05:06;3.30;99.90
28023;DHT22;67403;50.104;8.758;2023-02-26T11:07:38;3.20;99.90
28023;DHT22;67403;50.104;8.758;2023-02-26T11:10:13;3.40;99.90
28023;DHT22;67403;50.104;8.758;2023-02-26T11:12:40;3.30;99.90
28023;DHT22;67403;50.104;8.758;2023-02-26T11:15:12;3.20;99.90
28023;DHT22;67403;50.104;8.758;2023-02-26T11:17:39;3.50;99.90
28023;DHT22;67403;50.104;8.758;2023-02-26T11:20:16;3.70;99.90
28023;DHT22;67403;50.104;8.758;2023-02-26T11:22:47;3.90;99.90
28023;DHT22;67403;50.104;8.758;2023-02-26T11:25:17;3.60;99.90
28023;DHT22;67403;50.104;8.758;2023-02-26T11:27:49;3.50;99.90
28023;DHT22;67403;50.104;8.758;2023-02-26T11:30:21;3.30;99.90
28023;DHT22;67403;50.104;8.758;2023-02-26T11:32:51;3.30;99.90
28023;DHT22;67403;50.104;8.758;2023-02-26T11:35:21;3.50;99.90
28023;DHT22;67403;50.104;8.758;2023-02-26T11:37:49;3.40;99.90
28023;DHT22;67403;50.104;8.758;2023-02-26T11:40:23;3.60;99.90
28023;DHT22;67403;50.104;8.758;2023-02-26T11:42:54;3.80;99.90
28023;DHT22;67403;50.104;8.758;2023-02-26T11:45:21;3.50;99.90
28023;DHT22;67403;50.104;8.758;2023-02-26T11:47:57;3.70;99.90
28023;DHT22;67403;50.104;8.758;2023-02-26T11:50:28;3.90;99.90
28023;DHT22;67403;50.104;8.758;2023-02-26T11:53:06;4.30;99.90
28023;DHT22;67403;50.104;8.758;2023-02-26T11:55:37;4.20;99.90
28023;DHT22;67403;50.104;8.758;2023-02-26T11:58:09;4.10;99.90
28023;DHT22;67403;50.104;8.758;2023-02-26T12:00:41;3.90;99.90
28023;DHT22;67403;50.104;8.758;2023-02-26T12:03:15;4.70;99.90
28023;DHT22;67403;50.104;8.758;2023-02-26T12:05:44;5.10;99.90
28023;DHT22;67403;50.104;8.758;2023-02-26T12:08:16;5.00;99.90
28023;DHT22;67403;50.104;8.758;2023-02-26T12:10:50;5.10;99.90
28023;DHT22;67403;50.104;8.758;2023-02-26T12:13:26;4.60;99.90
28023;DHT22;67403;50.104;8.758;2023-02-26T12:15:59;4.30;99.90
28023;DHT22;67403;50.104;8.758;2023-02-26T12:18:43;4.30;99.90
28023;DHT22;67403;50.104;8.758;2023-02-26T12:21:33;4.20;99.90
28023;DHT22;67403;50.104;8.758;2023-02-26T12:24:21;3.80;99.90
28023;DHT22;67403;50.104;8.758;2023-02-26T12:26:54;3.40;99.90
28023;DHT22;67403;50.104;8.758;2023-02-26T12:29:43;4.00;99.90
28023;DHT22;67403;50.104;8.758;2023-02-26T12:32:24;4.20;99.90
28023;DHT22;67403;50.104;8.758;2023-02-26T12:38:07;3.70;99.90
28023;DHT22;67403;50.104;8.758;2023-02-26T12:40:56;4.00;99.90
28023;DHT22;67403;50.104;8.758;2023-02-26T12:43:31;3.80;99.90
28023;DHT22;67403;50.104;8.758;2023-02-26T12:46:06;3.40;99.90
28023;DHT22;67403;50.104;8.758;2023-02-26T12:48:45;4.50;99.90
28023;DHT22;67403;50.104;8.758;2023-02-26T12:51:21;5.90;99.90
28023;DHT22;67403;50.104;8.758;2023-02-26T12:54:03;7.30;99.90
28023;DHT22;67403;50.104;8.758;2023-02-26T12:56:57;6.70;99.90
28023;DHT22;67403;50.104;8.758;2023-02-26T12:59:44;5.40;99.90
28023;DHT22;67403;50.104;8.758;2023-02-26T13:02:53;4.90;99.90
28023;DHT22;67403;50.104;8.758;2023-02-26T13:05:36;5.00;99.90
28023;DHT22;67403;50.104;8.758;2023-02-26T13:08:09;4.70;99.90
28023;DHT22;67403;50.104;8.758;2023-02-26T13:10:55;3.90;99.90
28023;DHT22;67403;50.104;8.758;2023-02-26T13:13:37;3.50;99.90
28023;DHT22;67403;50.104;8.758;2023-02-26T13:16:14;3.80;99.90
28023;DHT22;67403;50.104;8.758;2023-02-26T13:18:49;3.60;99.90
28023;DHT22;67403;50.104;8.758;2023-02-26T13:21:22;3.60;99.90
28023;DHT22;67403;50.104;8.758;2023-02-26T13:23:52;3.20;99.90
28023;DHT22;67403;50.104;8.758;2023-02-26T13:26:22;3.30;99.90
28023;DHT22;67403;50.104;8.758;2023-02-26T13:28:55;3.80;99.90
28023;DHT22;67403;50.104;8.758;2023-02-26T13:31:26;3.90;99.90
28023;DHT22;67403;50.104;8.758;2023-02-26T13:33:55;3.90;99.90
28023;DHT22;67403;50.104;8.758;2023-02-26T13:36:27;3.90;99.90
28023;DHT22;67403;50.104;8.758;2023-02-26T13:39:05;4.10;99.90
28023;DHT22;67403;50.104;8.758;2023-02-26T13:41:45;3.70;99.90
28023;DHT22;67403;50.104;8.758;2023-02-26T13:44:25;3.60;99.90
28023;DHT22;67403;50.104;8.758;2023-02-26T13:47:14;3.40;99.90
28023;DHT22;67403;50.104;8.758;2023-02-26T13:49:55;3.50;99.90
28023;DHT22;67403;50.104;8.758;2023-02-26T13:52:25;3.30;99.90
28023;DHT22;67403;50.104;8.758;2023-02-26T13:54:53;3.40;99.90
28023;DHT22;67403;50.104;8.758;2023-02-26T13:57:26;3.60;99.90
28023;DHT22;67403;50.104;8.758;2023-02-26T14:00:01;3.70;99.90
28023;DHT22;67403;50.104;8.758;2023-02-26T14:02:45;3.80;99.90
28023;DHT22;67403;50.104;8.758;2023-02-26T14:05:31;3.60;99.90
28023;DHT22;67403;50.104;8.758;2023-02-26T14:08:21;3.70;99.90
28023;DHT22;67403;50.104;8.758;2023-02-26T14:10:57;4.90;99.90
28023;DHT22;67403;50.104;8.758;2023-02-26T14:13:33;6.30;99.90
28023;DHT22;67403;50.104;8.758;2023-02-26T14:16:09;7.80;96.40
28023;DHT22;67403;50.104;8.758;2023-02-26T14:18:41;7.80;92.80
28023;DHT22;67403;50.104;8.758;2023-02-26T14:21:37;6.80;93.50
28023;DHT22;67403;50.104;8.758;2023-02-26T14:24:12;7.50;93.50
28023;DHT22;67403;50.104;8.758;2023-02-26T14:26:45;8.70;91.70
28023;DHT22;67403;50.104;8.758;2023-02-26T14:29:19;8.00;90.40
28023;DHT22;67403;50.104;8.758;2023-02-26T14:32:04;6.30;92.90
28023;DHT22;67403;50.104;8.758;2023-02-26T14:34:33;6.20;94.80
28023;DHT22;67403;50.104;8.758;2023-02-26T14:37:03;5.30;95.90
28023;DHT22;67403;50.104;8.758;2023-02-26T14:39:35;4.70;97.50
28023;DHT22;67403;50.104;8.758;2023-02-26T14:42:04;4.50;99.40
28023;DHT22;67403;50.104;8.758;2023-02-26T14:44:37;4.40;99.10
28023;DHT22;67403;50.104;8.758;2023-02-26T14:47:06;4.30;99.80
28023;DHT22;67403;50.104;8.758;2023-02-26T14:49:35;4.10;99.90
28023;DHT22;67403;50.104;8.758;2023-02-26T14:52:21;4.10;99.90
28023;DHT22;67403;50.104;8.758;2023-02-26T14:57:53;4.00;99.90
28023;DHT22;67403;50.104;8.758;2023-02-26T15:00:32;4.60;99.90
28023;DHT22;67403;50.104;8.758;2023-02-26T15:03:20;4.50;99.90
28023;DHT22;67403;50.104;8.758;2023-02-26T15:05:59;4.00;99.90
28023;DHT22;67403;50.104;8.758;2023-02-26T15:08:45;4.10;99.90
28023;DHT22;67403;50.104;8.758;2023-02-26T15:11:26;4.20;99.90
28023;DHT22;67403;50.104;8.758;2023-02-26T15:14:25;4.10;99.90
28023;DHT22;67403;50.104;8.758;2023-02-26T15:17:05;4.20;99.90
28023;DHT22;67403;50.104;8.758;2023-02-26T15:19:52;4.00;99.90
28023;DHT22;67403;50.104;8.758;2023-02-26T15:22:31;3.80;99.90
28023;DHT22;67403;50.104;8.758;2023-02-26T15:25:00;3.70;99.90
28023;DHT22;67403;50.104;8.758;2023-02-26T15:27:30;3.50;99.90
28023;DHT22;67403;50.104;8.758;2023-02-26T15:29:58;3.50;99.90
28023;DHT22;67403;50.104;8.758;2023-02-26T15:32:29;3.60;99.90
28023;DHT22;67403;50.104;8.758;2023-02-26T15:34:57;3.50;99.90
28023;DHT22;67403;50.104;8.758;2023-02-26T15:37:26;3.30;99.90
28023;DHT22;67403;50.104;8.758;2023-02-26T15:39:53;3.40;99.90
28023;DHT22;67403;50.104;8.758;2023-02-26T15:42:23;3.50;99.90
28023;DHT22;67403;50.104;8.758;2023-02-26T15:44:52;3.40;99.90
28023;DHT22;67403;50.104;8.758;2023-02-26T15:47:20;3.50;99.90
28023;DHT22;67403;50.104;8.758;2023-02-26T15:49:48;3.40;99.90
28023;DHT22;67403;50.104;8.758;2023-02-26T15:52:18;3.40;99.90
28023;DHT22;67403;50.104;8.758;2023-02-26T15:54:49;3.20;99.90
28023;DHT22;67403;50.104;8.758;2023-02-26T15:57:17;3.10;99.90
28023;DHT22;67403;50.104;8.758;2023-02-26T15:59:47;2.90;99.90
28023;DHT22;67403;50.104;8.758;2023-02-26T16:02:15;2.90;99.90
28023;DHT22;67403;50.104;8.758;2023-02-26T16:04:44;2.80;99.90
28023;DHT22;67403;50.104;8.758;2023-02-26T16:07:12;2.90;99.90
28023;DHT22;67403;50.104;8.758;2023-02-26T16:09:43;3.00;99.90
28023;DHT22;67403;50.104;8.758;2023-02-26T16:12:15;3.00;99.90
28023;DHT22;67403;50.104;8.758;2023-02-26T16:14:45;3.10;99.90